createdAt,value
2018-12-08T00:01:14.000Z,99212
2018-12-08T00:03:14.000Z,99210
2018-12-08T00:04:44.000Z,99211
2018-12-08T00:06:14.000Z,99205
2018-12-08T00:07:14.000Z,99214
2018-12-08T00:09:14.000Z,99224
2018-12-08T00:11:14.000Z,99221
2018-12-08T00:12:14.000Z,99224
2018-12-08T00:14:14.000Z,99226
2018-12-08T00:15:14.000Z,99219
2018-12-08T00:17:14.000Z,99220
2018-12-08T00:19:14.000Z,99229
2018-12-08T00:21:14.000Z,99217
2018-12-08T00:23:14.000Z,99219
2018-12-08T00:25:14.000Z,99221
2018-12-08T00:27:14.000Z,99224
2018-12-08T00:29:14.000Z,99221
2018-12-08T00:30:59.000Z,99217
2018-12-08T00:32:14.000Z,99222
2018-12-08T00:33:14.000Z,99222
2018-12-08T00:34:59.000Z,99223
2018-12-08T00:36:14.000Z,99224
2018-12-08T00:37:59.000Z,99219
2018-12-08T00:39:14.000Z,99214
2018-12-08T00:41:14.000Z,99216
2018-12-08T00:42:14.000Z,99221
2018-12-08T00:44:14.000Z,99222
2018-12-08T00:46:14.000Z,99229
2018-12-08T00:47:14.000Z,99226
2018-12-08T00:49:14.000Z,99231
2018-12-08T00:51:14.000Z,99232
2018-12-08T00:53:14.000Z,99224
2018-12-08T00:54:14.000Z,99226
2018-12-08T00:56:14.000Z,99227
2018-12-08T00:57:14.000Z,99220
2018-12-08T00:59:14.000Z,99228
2018-12-08T01:00:14.000Z,99232
2018-12-08T01:02:14.000Z,99232
2018-12-08T01:04:14.000Z,99226
2018-12-08T01:06:14.000Z,99224
2018-12-08T01:07:59.000Z,99233
2018-12-08T01:09:14.000Z,99229
2018-12-08T01:10:14.000Z,99234
2018-12-08T01:11:14.000Z,99231
2018-12-08T01:13:14.000Z,99229
2018-12-08T01:15:14.000Z,99225
2018-12-08T01:16:14.000Z,99234
2018-12-08T01:18:14.000Z,99238
2018-12-08T01:20:14.000Z,99224
2018-12-08T01:21:14.000Z,99226
2018-12-08T01:23:14.000Z,99219
2018-12-08T01:25:14.000Z,99218
2018-12-08T01:27:14.000Z,99211
2018-12-08T01:29:14.000Z,99221
2018-12-08T01:31:14.000Z,99223
2018-12-08T01:33:14.000Z,99221
2018-12-08T01:35:14.000Z,99229
2018-12-08T01:37:14.000Z,99222
2018-12-08T01:38:14.000Z,99215
2018-12-08T01:40:14.000Z,99230
2018-12-08T01:42:14.000Z,99236
2018-12-08T01:43:14.000Z,99239
2018-12-08T01:44:44.000Z,99233
2018-12-08T01:46:14.000Z,99232
2018-12-08T01:48:15.000Z,99236
2018-12-08T01:50:14.000Z,99232
2018-12-08T01:51:59.000Z,99238
2018-12-08T01:53:14.000Z,99240
2018-12-08T01:54:14.000Z,99243
2018-12-08T01:56:14.000Z,99240
2018-12-08T01:58:14.000Z,99244
2018-12-08T02:00:14.000Z,99247
2018-12-08T02:02:14.000Z,99234
2018-12-08T02:04:14.000Z,99231
2018-12-08T02:05:14.000Z,99243
2018-12-08T02:07:14.000Z,99242
2018-12-08T02:08:14.000Z,99236
2018-12-08T02:10:14.000Z,99236
2018-12-08T02:12:14.000Z,99241
2018-12-08T02:14:14.000Z,99234
2018-12-08T02:15:14.000Z,99230
2018-12-08T02:17:14.000Z,99232
2018-12-08T02:19:14.000Z,99229
2018-12-08T02:20:14.000Z,99226
2018-12-08T02:21:59.000Z,99232
2018-12-08T02:23:00.000Z,99236
2018-12-08T02:24:14.000Z,99234
2018-12-08T02:25:15.000Z,99230
2018-12-08T02:27:14.000Z,99228
2018-12-08T02:29:14.000Z,99227
2018-12-08T02:31:14.000Z,99225
2018-12-08T02:32:59.000Z,99232
2018-12-08T02:34:14.000Z,99221
2018-12-08T02:35:59.000Z,99221
2018-12-08T02:37:00.000Z,99216
2018-12-08T02:38:14.000Z,99235
2018-12-08T02:39:59.000Z,99226
2018-12-08T02:41:14.000Z,99219
2018-12-08T02:43:14.000Z,99222
2018-12-08T02:45:14.000Z,99224
2018-12-08T02:46:15.000Z,99223
2018-12-08T02:48:14.000Z,99221
2018-12-08T02:49:14.000Z,99217
2018-12-08T02:50:14.000Z,99228
2018-12-08T02:51:59.000Z,99225
2018-12-08T02:52:59.000Z,99227
2018-12-08T02:55:14.000Z,99220
2018-12-08T02:56:14.000Z,99232
2018-12-08T02:58:14.000Z,99224
2018-12-08T03:00:14.000Z,99222
2018-12-08T03:02:14.000Z,99220
2018-12-08T03:03:14.000Z,99215
2018-12-08T03:05:14.000Z,99209
2018-12-08T03:06:59.000Z,99201
2018-12-08T03:08:14.000Z,99190
2018-12-08T03:09:14.000Z,99189
2018-12-08T03:10:14.000Z,99188
2018-12-08T03:12:14.000Z,99189
2018-12-08T03:13:59.000Z,99191
2018-12-08T03:15:14.000Z,99199
2018-12-08T03:16:59.000Z,99192
2018-12-08T03:18:14.000Z,99187
2018-12-08T03:20:14.000Z,99178
2018-12-08T03:22:14.000Z,99175
2018-12-08T03:24:14.000Z,99170
2018-12-08T03:26:14.000Z,99175
2018-12-08T03:28:14.000Z,99172
2018-12-08T03:30:14.000Z,99168
2018-12-08T03:32:14.000Z,99160
2018-12-08T03:33:14.000Z,99149
2018-12-08T03:35:14.000Z,99162
2018-12-08T03:37:14.000Z,99156
2018-12-08T03:38:14.000Z,99162
2018-12-08T03:40:14.000Z,99153
2018-12-08T03:42:14.000Z,99165
2018-12-08T03:44:14.000Z,99153
2018-12-08T03:45:14.000Z,99135
2018-12-08T03:47:14.000Z,99135
2018-12-08T03:48:14.000Z,99159
2018-12-08T03:49:14.000Z,99173
2018-12-08T03:51:14.000Z,99141
2018-12-08T03:52:14.000Z,99138
2018-12-08T03:54:14.000Z,99152
2018-12-08T03:55:59.000Z,99139
2018-12-08T03:57:14.000Z,99144
2018-12-08T03:59:14.000Z,99146
2018-12-08T04:01:14.000Z,99141
2018-12-08T04:02:59.000Z,99139
2018-12-08T04:04:14.000Z,99141
2018-12-08T04:05:14.000Z,99137
2018-12-08T04:07:14.000Z,99131
2018-12-08T04:08:14.000Z,99132
2018-12-08T04:10:14.000Z,99125
2018-12-08T04:11:59.000Z,99126
2018-12-08T04:13:14.000Z,99136
2018-12-08T04:15:14.000Z,99136
2018-12-08T04:16:59.000Z,99145
2018-12-08T04:18:14.000Z,99137
2018-12-08T04:19:59.000Z,99133
2018-12-08T04:21:14.000Z,99135
2018-12-08T04:23:14.000Z,99131
2018-12-08T04:25:14.000Z,99131
2018-12-08T04:27:14.000Z,99120
2018-12-08T04:29:14.000Z,99123
2018-12-08T04:31:14.000Z,99112
2018-12-08T04:33:14.000Z,99115
2018-12-08T04:35:14.000Z,99124
2018-12-08T04:36:59.000Z,99120
2018-12-08T04:38:14.000Z,99108
2018-12-08T04:40:14.000Z,99124
2018-12-08T04:42:14.000Z,99129
2018-12-08T04:44:14.000Z,99118
2018-12-08T04:45:14.000Z,99121
2018-12-08T04:46:14.000Z,99103
2018-12-08T04:48:14.000Z,99119
2018-12-08T04:49:59.000Z,99117
2018-12-08T04:51:14.000Z,99110
2018-12-08T04:53:14.000Z,99116
2018-12-08T04:55:14.000Z,99109
2018-12-08T04:57:14.000Z,99112
2018-12-08T04:58:59.000Z,99118
2018-12-08T05:00:14.000Z,99113
2018-12-08T05:02:14.000Z,99104
2018-12-08T05:04:14.000Z,99106
2018-12-08T05:06:14.000Z,99104
2018-12-08T05:07:59.000Z,99095
2018-12-08T05:09:14.000Z,99093
2018-12-08T05:10:14.000Z,99094
2018-12-08T05:12:14.000Z,99104
2018-12-08T05:13:14.000Z,99110
2018-12-08T05:14:59.000Z,99088
2018-12-08T05:16:14.000Z,99103
2018-12-08T05:18:14.000Z,99110
2018-12-08T05:20:14.000Z,99108
2018-12-08T05:22:14.000Z,99118
2018-12-08T05:24:14.000Z,99115
2018-12-08T05:25:14.000Z,99106
2018-12-08T05:27:14.000Z,99116
2018-12-08T05:29:14.000Z,99108
2018-12-08T05:31:14.000Z,99111
2018-12-08T05:32:59.000Z,99100
2018-12-08T05:34:14.000Z,99103
2018-12-08T05:35:59.000Z,99106
2018-12-08T05:37:14.000Z,99097
2018-12-08T05:39:14.000Z,99104
2018-12-08T05:40:14.000Z,99100
2018-12-08T05:42:14.000Z,99101
2018-12-08T05:43:14.000Z,99097
2018-12-08T05:44:14.000Z,99099
2018-12-08T05:46:14.000Z,99092
2018-12-08T05:47:59.000Z,99106
2018-12-08T05:49:14.000Z,99102
2018-12-08T05:51:14.000Z,99100
2018-12-08T05:52:14.000Z,99094
2018-12-08T05:53:14.000Z,99101
2018-12-08T05:55:14.000Z,99088
2018-12-08T05:56:59.000Z,99088
2018-12-08T05:58:14.000Z,99101
2018-12-08T06:00:14.000Z,99096
2018-12-08T06:02:15.000Z,99090
2018-12-08T06:03:15.000Z,99100
2018-12-08T06:04:59.000Z,99098
2018-12-08T06:06:15.000Z,99110
2018-12-08T06:08:15.000Z,99093
2018-12-08T06:10:15.000Z,99096
2018-12-08T06:11:15.000Z,99102
2018-12-08T06:12:15.000Z,99098
2018-12-08T06:14:15.000Z,99108
2018-12-08T06:16:15.000Z,99092
2018-12-08T06:17:59.000Z,99090
2018-12-08T06:19:15.000Z,99091
2018-12-08T06:20:15.000Z,99095
2018-12-08T06:22:15.000Z,99092
2018-12-08T06:23:15.000Z,99095
2018-12-08T06:25:15.000Z,99091
2018-12-08T06:26:15.000Z,99096
2018-12-08T06:27:59.000Z,99092
2018-12-08T06:29:15.000Z,99092
2018-12-08T06:31:15.000Z,99089
2018-12-08T06:33:15.000Z,99082
2018-12-08T06:34:15.000Z,99079
2018-12-08T06:35:15.000Z,99071
2018-12-08T06:36:15.000Z,99073
2018-12-08T06:38:15.000Z,99069
2018-12-08T06:40:15.000Z,99072
2018-12-08T06:41:59.000Z,99067
2018-12-08T06:43:15.000Z,99065
2018-12-08T06:45:15.000Z,99069
2018-12-08T06:47:15.000Z,99054
2018-12-08T06:49:15.000Z,99059
2018-12-08T06:50:59.000Z,99067
2018-12-08T06:52:15.000Z,99061
2018-12-08T06:53:44.000Z,99067
2018-12-08T06:55:15.000Z,99051
2018-12-08T06:56:59.000Z,99061
2018-12-08T06:58:15.000Z,99063
2018-12-08T07:00:15.000Z,99065
2018-12-08T07:01:15.000Z,99069
2018-12-08T07:03:15.000Z,99072
2018-12-08T07:05:15.000Z,99061
2018-12-08T07:06:44.000Z,99047
2018-12-08T07:08:15.000Z,99044
2018-12-08T07:09:59.000Z,99039
2018-12-08T07:11:15.000Z,99041
2018-12-08T07:13:15.000Z,99042
2018-12-08T07:14:59.000Z,99032
2018-12-08T07:16:15.000Z,99027
2018-12-08T07:18:15.000Z,99028
2018-12-08T07:19:15.000Z,99025
2018-12-08T07:21:15.000Z,99033
2018-12-08T07:22:15.000Z,99038
2018-12-08T07:24:15.000Z,99036
2018-12-08T07:26:15.000Z,99031
2018-12-08T07:27:15.000Z,99037
2018-12-08T07:28:15.000Z,99034
2018-12-08T07:29:44.000Z,99026
2018-12-08T07:31:15.000Z,99037
2018-12-08T07:32:15.000Z,99033
2018-12-08T07:34:15.000Z,99039
2018-12-08T07:35:15.000Z,99052
2018-12-08T07:36:15.000Z,99037
2018-12-08T07:37:15.000Z,99045
2018-12-08T07:38:15.000Z,99027
2018-12-08T07:40:15.000Z,99032
2018-12-08T07:42:15.000Z,99036
2018-12-08T07:44:15.000Z,99047
2018-12-08T07:46:15.000Z,99044
2018-12-08T07:47:15.000Z,99032
2018-12-08T07:49:15.000Z,99042
2018-12-08T07:51:15.000Z,99040
2018-12-08T07:52:15.000Z,99080
2018-12-08T07:54:15.000Z,99027
2018-12-08T07:56:15.000Z,99032
2018-12-08T07:57:15.000Z,99036
2018-12-08T07:58:59.000Z,99023
2018-12-08T08:00:15.000Z,99022
2018-12-08T08:02:15.000Z,99020
2018-12-08T08:03:59.000Z,99022
2018-12-08T08:05:00.000Z,99022
2018-12-08T08:06:15.000Z,99022
2018-12-08T08:07:44.000Z,99034
2018-12-08T08:09:14.000Z,99022
2018-12-08T08:11:14.000Z,99023
2018-12-08T08:12:14.000Z,99016
2018-12-08T08:13:59.000Z,99011
2018-12-08T08:15:14.000Z,99003
2018-12-08T08:17:14.000Z,98991
2018-12-08T08:19:14.000Z,99007
2018-12-08T08:21:14.000Z,99007
2018-12-08T08:23:14.000Z,99004
2018-12-08T08:24:14.000Z,98994
2018-12-08T08:26:14.000Z,98988
2018-12-08T08:28:14.000Z,98983
2018-12-08T08:30:14.000Z,98984
2018-12-08T08:32:14.000Z,98992
2018-12-08T08:34:14.000Z,98992
2018-12-08T08:36:14.000Z,98987
2018-12-08T08:38:14.000Z,98987
2018-12-08T08:39:14.000Z,98989
2018-12-08T08:41:14.000Z,98986
2018-12-08T08:43:14.000Z,98986
2018-12-08T08:44:59.000Z,98983
2018-12-08T08:46:14.000Z,98974
2018-12-08T08:48:14.000Z,98974
2018-12-08T08:50:14.000Z,98984
2018-12-08T08:52:14.000Z,98988
2018-12-08T08:53:14.000Z,98983
2018-12-08T08:54:14.000Z,98980
2018-12-08T08:56:14.000Z,98980
2018-12-08T08:57:14.000Z,98994
2018-12-08T08:59:14.000Z,98981
2018-12-08T09:01:14.000Z,99003
2018-12-08T09:03:14.000Z,99004
2018-12-08T09:04:14.000Z,99002
2018-12-08T09:06:14.000Z,98982
2018-12-08T09:07:14.000Z,98986
2018-12-08T09:09:14.000Z,98978
2018-12-08T09:11:14.000Z,98991
2018-12-08T09:12:59.000Z,98965
2018-12-08T09:14:14.000Z,98953
2018-12-08T09:15:59.000Z,98968
2018-12-08T09:16:59.000Z,98982
2018-12-08T09:18:14.000Z,98974
2018-12-08T09:20:14.000Z,98974
2018-12-08T09:22:14.000Z,98962
2018-12-08T09:24:14.000Z,98978
2018-12-08T09:25:14.000Z,98982
2018-12-08T09:27:14.000Z,98974
2018-12-08T09:28:14.000Z,98970
2018-12-08T09:30:14.000Z,98960
2018-12-08T09:32:14.000Z,98958
2018-12-08T09:34:14.000Z,98967
2018-12-08T09:35:14.000Z,98966
2018-12-08T09:37:14.000Z,98972
2018-12-08T09:39:14.000Z,98967
2018-12-08T09:40:59.000Z,98969
2018-12-08T09:43:14.000Z,98976
2018-12-08T09:45:14.000Z,98972
2018-12-08T09:47:14.000Z,98968
2018-12-08T09:48:59.000Z,98969
2018-12-08T09:50:14.000Z,98962
2018-12-08T09:52:14.000Z,98961
2018-12-08T09:54:14.000Z,98968
2018-12-08T09:56:14.000Z,98969
2018-12-08T09:57:59.000Z,98978
2018-12-08T10:00:14.000Z,98974
2018-12-08T10:01:14.000Z,98985
2018-12-08T10:02:14.000Z,98968
2018-12-08T10:04:14.000Z,98952
2018-12-08T10:06:14.000Z,98954
2018-12-08T10:07:14.000Z,99006
2018-12-08T10:08:44.000Z,98985
2018-12-08T10:10:14.000Z,98966
2018-12-08T10:12:14.000Z,98977
2018-12-08T10:14:14.000Z,98971
2018-12-08T10:16:14.000Z,98988
2018-12-08T10:18:14.000Z,98981
2018-12-08T10:20:14.000Z,98978
2018-12-08T10:22:14.000Z,98994
2018-12-08T10:24:14.000Z,98983
2018-12-08T10:26:14.000Z,98971
2018-12-08T10:28:14.000Z,98969
2018-12-08T10:29:59.000Z,98972
2018-12-08T10:31:14.000Z,98974
2018-12-08T10:33:14.000Z,98968
2018-12-08T10:35:14.000Z,98969
2018-12-08T10:37:14.000Z,98968
2018-12-08T10:38:59.000Z,98967
2018-12-08T10:40:14.000Z,98969
2018-12-08T10:42:14.000Z,98967
2018-12-08T10:43:14.000Z,98963
2018-12-08T10:45:14.000Z,98957
2018-12-08T10:46:14.000Z,98964
2018-12-08T10:48:14.000Z,98962
2018-12-08T10:49:59.000Z,98960
2018-12-08T10:51:14.000Z,98961
2018-12-08T10:52:14.000Z,98965
2018-12-08T10:54:14.000Z,98963
2018-12-08T10:55:14.000Z,98961
2018-12-08T10:57:14.000Z,98973
2018-12-08T10:59:14.000Z,98965
2018-12-08T11:01:14.000Z,98974
2018-12-08T11:02:14.000Z,98961
2018-12-08T11:03:14.000Z,98960
2018-12-08T11:05:14.000Z,98952
2018-12-08T11:07:14.000Z,98962
2018-12-08T11:09:14.000Z,98963
2018-12-08T11:11:14.000Z,98985
2018-12-08T11:13:14.000Z,98988
2018-12-08T11:14:14.000Z,98985
2018-12-08T11:16:14.000Z,98982
2018-12-08T11:17:14.000Z,98993
2018-12-08T11:19:14.000Z,98977
2018-12-08T11:20:59.000Z,98975
2018-12-08T11:22:14.000Z,98974
2018-12-08T11:24:15.000Z,98977
2018-12-08T11:25:59.000Z,98987
2018-12-08T11:27:14.000Z,98994
2018-12-08T11:28:14.000Z,98993
2018-12-08T11:30:14.000Z,98977
2018-12-08T11:31:14.000Z,98975
2018-12-08T11:33:14.000Z,98977
2018-12-08T11:35:14.000Z,98983
2018-12-08T11:36:44.000Z,98978
2018-12-08T12:19:58.000Z,98991
2018-12-08T12:21:29.000Z,99001
2018-12-08T12:22:44.000Z,98986
2018-12-08T12:24:44.000Z,98993
2018-12-08T12:25:44.000Z,98990
2018-12-08T12:27:28.000Z,98982
2018-12-08T12:28:28.000Z,99001
2018-12-08T12:29:44.000Z,98991
2018-12-08T12:31:44.000Z,98995
2018-12-08T12:32:44.000Z,98995
2018-12-08T12:34:44.000Z,98987
2018-12-08T12:36:44.000Z,98982
2018-12-08T12:37:44.000Z,98989
2018-12-08T12:39:44.000Z,98999
2018-12-08T12:41:44.000Z,98988
2018-12-08T12:42:44.000Z,98988
2018-12-08T12:43:44.000Z,98984
2018-12-08T12:45:44.000Z,98984
2018-12-08T12:47:13.000Z,98982
2018-12-08T12:48:29.000Z,98984
2018-12-08T12:49:44.000Z,98984
2018-12-08T12:51:44.000Z,98986
2018-12-08T12:53:28.000Z,98987
2018-12-08T12:54:44.000Z,98985
2018-12-08T12:55:44.000Z,98981
2018-12-08T12:57:29.000Z,98987
2018-12-08T12:58:44.000Z,98985
2018-12-08T12:59:44.000Z,98987
2018-12-08T13:01:44.000Z,98980
2018-12-08T13:03:44.000Z,98993
2018-12-08T13:04:44.000Z,98993
2018-12-08T13:06:44.000Z,98983
2018-12-08T13:07:44.000Z,98982
2018-12-08T13:09:44.000Z,98979
2018-12-08T13:11:44.000Z,98979
2018-12-08T13:13:44.000Z,98979
2018-12-08T13:15:28.000Z,98977
2018-12-08T13:16:44.000Z,98980
2018-12-08T13:18:28.000Z,98970
2018-12-08T13:19:44.000Z,98976
2018-12-08T13:20:44.000Z,98979
2018-12-08T13:22:44.000Z,98969
2018-12-08T13:23:44.000Z,98976
2018-12-08T13:25:44.000Z,98977
2018-12-08T13:27:44.000Z,98983
2018-12-08T13:29:14.000Z,98986
2018-12-08T13:30:44.000Z,98982
2018-12-08T13:32:29.000Z,98992
2018-12-08T13:33:29.000Z,98990
2018-12-08T13:34:44.000Z,98990
2018-12-08T13:36:44.000Z,98985
2018-12-08T13:37:44.000Z,98986
2018-12-08T13:39:44.000Z,98991
2018-12-08T13:40:44.000Z,98991
2018-12-08T13:42:44.000Z,98998
2018-12-08T13:43:44.000Z,98993
2018-12-08T13:44:44.000Z,98984
2018-12-08T13:46:29.000Z,98995
2018-12-08T13:47:44.000Z,99006
2018-12-08T13:49:44.000Z,98983
2018-12-08T13:51:44.000Z,98985
2018-12-08T13:53:29.000Z,98990
2018-12-08T13:55:44.000Z,98965
2018-12-08T13:57:44.000Z,98971
2018-12-08T13:58:44.000Z,98972
2018-12-08T13:59:44.000Z,98965
2018-12-08T14:01:44.000Z,98969
2018-12-08T14:03:44.000Z,98965
2018-12-08T14:05:44.000Z,98961
2018-12-08T14:07:44.000Z,98967
2018-12-08T14:09:14.000Z,98967
2018-12-08T14:10:44.000Z,98969
2018-12-08T14:12:44.000Z,98967
2018-12-08T14:14:44.000Z,98965
2018-12-08T14:15:44.000Z,98966
2018-12-08T14:17:44.000Z,98968
2018-12-08T14:19:44.000Z,98976
2018-12-08T14:21:29.000Z,98980
2018-12-08T14:23:44.000Z,98972
2018-12-08T14:25:44.000Z,98977
2018-12-08T14:27:44.000Z,98976
2018-12-08T14:28:44.000Z,98969
2018-12-08T14:29:43.000Z,98972
2018-12-08T14:31:43.000Z,98968
2018-12-08T14:32:43.000Z,98968
2018-12-08T14:34:43.000Z,98964
2018-12-08T14:35:43.000Z,98964
2018-12-08T14:37:43.000Z,98966
2018-12-08T14:39:43.000Z,98964
2018-12-08T14:41:43.000Z,98961
2018-12-08T14:43:43.000Z,98956
2018-12-08T14:44:43.000Z,98964
2018-12-08T14:46:43.000Z,98960
2018-12-08T14:47:43.000Z,98968
2018-12-08T14:49:43.000Z,98966
2018-12-08T14:51:28.000Z,98965
2018-12-08T14:53:43.000Z,98961
2018-12-08T14:54:43.000Z,98962
2018-12-08T14:55:43.000Z,98956
2018-12-08T14:57:43.000Z,98961
2018-12-08T14:58:43.000Z,98962
2018-12-08T15:00:28.000Z,98946
2018-12-08T15:01:43.000Z,98946
2018-12-08T15:03:43.000Z,98952
2018-12-08T15:05:43.000Z,98957
2018-12-08T15:06:43.000Z,98942
2018-12-08T15:07:43.000Z,98945
2018-12-08T15:09:43.000Z,98952
2018-12-08T15:11:29.000Z,98945
2018-12-08T15:13:43.000Z,98948
2018-12-08T15:14:43.000Z,98953
2018-12-08T15:16:43.000Z,98956
2018-12-08T15:18:43.000Z,98950
2018-12-08T15:19:43.000Z,98954
2018-12-08T15:21:43.000Z,98948
2018-12-08T15:23:28.000Z,98950
2018-12-08T15:24:28.000Z,98949
2018-12-08T15:25:43.000Z,98955
2018-12-08T15:26:43.000Z,98954
2018-12-08T15:28:43.000Z,98951
2018-12-08T15:30:43.000Z,98949
2018-12-08T15:32:43.000Z,98948
2018-12-08T15:33:44.000Z,98955
2018-12-08T15:34:44.000Z,98956
2018-12-08T15:36:29.000Z,98946
2018-12-08T15:37:44.000Z,98945
2018-12-08T15:39:44.000Z,98943
2018-12-08T15:40:44.000Z,98950
2018-12-08T15:42:44.000Z,98944
2018-12-08T15:44:44.000Z,98945
2018-12-08T15:46:44.000Z,98947
2018-12-08T15:47:44.000Z,98942
2018-12-08T15:49:44.000Z,98945
2018-12-08T15:50:44.000Z,98946
2018-12-08T15:52:44.000Z,98946
2018-12-08T15:53:44.000Z,98951
2018-12-08T15:55:44.000Z,98948
2018-12-08T15:57:44.000Z,98942
2018-12-08T15:59:44.000Z,98940
2018-12-08T16:00:44.000Z,98943
2018-12-08T16:01:44.000Z,98938
2018-12-08T16:03:44.000Z,98942
2018-12-08T16:05:29.000Z,98942
2018-12-08T16:06:44.000Z,98932
2018-12-08T16:07:44.000Z,98940
2018-12-08T16:09:44.000Z,98931
2018-12-08T16:11:44.000Z,98929
2018-12-08T16:13:44.000Z,98926
2018-12-08T16:15:44.000Z,98918
2018-12-08T16:17:44.000Z,98907
2018-12-08T16:18:44.000Z,98915
2018-12-08T16:19:44.000Z,98915
2018-12-08T16:21:29.000Z,98915
2018-12-08T16:22:44.000Z,98909
2018-12-08T16:23:44.000Z,98912
2018-12-08T16:24:44.000Z,98904
2018-12-08T16:26:44.000Z,98904
2018-12-08T16:27:44.000Z,98902
2018-12-08T16:28:44.000Z,98892
2018-12-08T16:30:44.000Z,98882
2018-12-08T16:31:44.000Z,98886
2018-12-08T16:33:44.000Z,98878
2018-12-08T16:35:44.000Z,98883
2018-12-08T16:37:44.000Z,98878
2018-12-08T16:38:44.000Z,98870
2018-12-08T16:40:44.000Z,98869
2018-12-08T16:42:44.000Z,98867
2018-12-08T16:43:44.000Z,98865
2018-12-08T16:45:44.000Z,98861
2018-12-08T16:46:44.000Z,98861
2018-12-08T16:48:44.000Z,98860
2018-12-08T16:50:44.000Z,98844
2018-12-08T16:52:14.000Z,98850
2018-12-08T16:53:29.000Z,98850
2018-12-08T16:55:44.000Z,98834
2018-12-08T16:57:44.000Z,98839
2018-12-08T16:58:44.000Z,98834
2018-12-08T17:00:44.000Z,98833
2018-12-08T17:02:44.000Z,98828
2018-12-08T17:04:44.000Z,98823
2018-12-08T17:06:44.000Z,98812
2018-12-08T17:08:44.000Z,98814
2018-12-08T17:09:44.000Z,98813
2018-12-08T17:11:44.000Z,98810
2018-12-08T17:13:44.000Z,98804
2018-12-08T17:14:44.000Z,98802
2018-12-08T17:16:29.000Z,98798
2018-12-08T17:17:44.000Z,98798
2018-12-08T17:19:44.000Z,98789
2018-12-08T17:20:44.000Z,98787
2018-12-08T17:22:44.000Z,98787
2018-12-08T17:23:44.000Z,98771
2018-12-08T17:25:44.000Z,98776
2018-12-08T17:27:29.000Z,98769
2018-12-08T17:28:44.000Z,98772
2018-12-08T17:29:44.000Z,98769
2018-12-08T17:31:44.000Z,98768
2018-12-08T17:33:44.000Z,98748
2018-12-08T17:34:44.000Z,98749
2018-12-08T17:36:29.000Z,98739
2018-12-08T17:37:44.000Z,98731
2018-12-08T17:39:44.000Z,98730
2018-12-08T17:41:44.000Z,98727
2018-12-08T17:43:13.000Z,98736
2018-12-08T17:44:44.000Z,98715
2018-12-08T17:46:44.000Z,98726
2018-12-08T17:47:44.000Z,98722
2018-12-08T17:49:44.000Z,98716
2018-12-08T17:51:28.000Z,98702
2018-12-08T17:52:44.000Z,98701
2018-12-08T17:54:44.000Z,98695
2018-12-08T17:56:28.000Z,98686
2018-12-08T17:57:44.000Z,98680
2018-12-08T17:59:28.000Z,98679
2018-12-08T18:00:44.000Z,98678
2018-12-08T18:02:44.000Z,98671
2018-12-08T18:04:29.000Z,98669
2018-12-08T18:06:44.000Z,98666
2018-12-08T18:07:44.000Z,98668
2018-12-08T18:09:44.000Z,98661
2018-12-08T18:11:28.000Z,98658
2018-12-08T18:12:44.000Z,98652
2018-12-08T18:13:44.000Z,98650
2018-12-08T18:14:44.000Z,98645
2018-12-08T18:16:44.000Z,98647
2018-12-08T18:18:29.000Z,98638
2018-12-08T18:19:44.000Z,98632
2018-12-08T18:21:28.000Z,98629
2018-12-08T18:22:29.000Z,98616
2018-12-08T18:24:29.000Z,98627
2018-12-08T18:26:44.000Z,98621
2018-12-08T18:27:44.000Z,98622
2018-12-08T18:29:44.000Z,98614
2018-12-08T18:30:44.000Z,98614
2018-12-08T18:32:44.000Z,98609
2018-12-08T18:34:44.000Z,98593
2018-12-08T18:35:44.000Z,98595
2018-12-08T18:37:44.000Z,98586
2018-12-08T18:39:44.000Z,98564
2018-12-08T18:41:28.000Z,98567
2018-12-08T18:42:44.000Z,98557
2018-12-08T18:44:44.000Z,98544
2018-12-08T18:46:44.000Z,98547
2018-12-08T18:48:44.000Z,98538
2018-12-08T18:50:44.000Z,98536
2018-12-08T18:52:44.000Z,98522
2018-12-08T18:54:44.000Z,98515
2018-12-08T18:56:44.000Z,98523
2018-12-08T18:58:29.000Z,98521
2018-12-08T18:59:44.000Z,98513
2018-12-08T19:01:44.000Z,98505
2018-12-08T19:03:44.000Z,98510
2018-12-08T19:04:44.000Z,98505
2018-12-08T19:05:44.000Z,98504
2018-12-08T19:07:44.000Z,98493
2018-12-08T19:08:44.000Z,98500
2018-12-08T19:10:44.000Z,98496
2018-12-08T19:12:44.000Z,98498
2018-12-08T19:13:44.000Z,98488
2018-12-08T19:15:44.000Z,98490
2018-12-08T19:17:44.000Z,98475
2018-12-08T19:18:44.000Z,98470
2018-12-08T19:20:44.000Z,98479
2018-12-08T19:22:44.000Z,98475
2018-12-08T19:24:44.000Z,98470
2018-12-08T19:25:44.000Z,98471
2018-12-08T19:27:44.000Z,98461
2018-12-08T19:28:44.000Z,98471
2018-12-08T19:30:29.000Z,98463
2018-12-08T19:31:44.000Z,98463
2018-12-08T19:32:44.000Z,98445
2018-12-08T19:34:44.000Z,98435
2018-12-08T19:35:44.000Z,98433
2018-12-08T19:37:44.000Z,98422
2018-12-08T19:38:44.000Z,98413
2018-12-08T19:40:44.000Z,98407
2018-12-08T19:42:13.000Z,98404
2018-12-08T19:43:44.000Z,98398
2018-12-08T19:44:44.000Z,98389
2018-12-08T19:46:44.000Z,98382
2018-12-08T19:47:44.000Z,98371
2018-12-08T19:48:44.000Z,98378
2018-12-08T19:49:44.000Z,98359
2018-12-08T19:51:44.000Z,98362
2018-12-08T19:52:44.000Z,98355
2018-12-08T19:54:28.000Z,98355
2018-12-08T19:55:44.000Z,98359
2018-12-08T19:56:44.000Z,98356
2018-12-08T19:58:44.000Z,98341
2018-12-08T19:59:44.000Z,98340
2018-12-08T20:01:44.000Z,98319
2018-12-08T20:02:44.000Z,98314
2018-12-08T20:04:44.000Z,98313
2018-12-08T20:06:44.000Z,98299
2018-12-08T20:07:44.000Z,98290
2018-12-08T20:08:44.000Z,98290
2018-12-08T20:10:44.000Z,98284
2018-12-08T20:12:44.000Z,98269
2018-12-08T20:14:44.000Z,98255
2018-12-08T20:16:44.000Z,98268
2018-12-08T20:17:44.000Z,98257
2018-12-08T20:19:28.000Z,98247
2018-12-08T20:20:44.000Z,98236
2018-12-08T20:21:44.000Z,98225
2018-12-08T20:23:28.000Z,98226
2018-12-08T20:24:44.000Z,98236
2018-12-08T20:25:44.000Z,98239
2018-12-08T20:26:44.000Z,98233
2018-12-08T20:28:44.000Z,98221
2018-12-08T20:29:44.000Z,98216
2018-12-08T20:31:44.000Z,98240
2018-12-08T20:33:44.000Z,98233
2018-12-08T20:35:44.000Z,98211
2018-12-08T20:36:44.000Z,98218
2018-12-08T20:38:44.000Z,98207
2018-12-08T20:39:44.000Z,98199
2018-12-08T20:41:44.000Z,98196
2018-12-08T20:42:44.000Z,98212
2018-12-08T20:43:44.000Z,98202
2018-12-08T20:44:44.000Z,98193
2018-12-08T20:46:44.000Z,98197
2018-12-08T20:48:13.000Z,98179
2018-12-08T20:49:44.000Z,98178
2018-12-08T20:50:44.000Z,98173
2018-12-08T20:51:44.000Z,98162
2018-12-08T20:53:14.000Z,98170
2018-12-08T20:54:44.000Z,98153
2018-12-08T20:56:44.000Z,98146
2018-12-08T20:58:44.000Z,98136
2018-12-08T21:00:44.000Z,98132
2018-12-08T21:02:29.000Z,98125
2018-12-08T21:03:44.000Z,98129
2018-12-08T21:05:44.000Z,98143
2018-12-08T21:07:44.000Z,98138
2018-12-08T21:08:44.000Z,98152
2018-12-08T21:10:44.000Z,98185
2018-12-08T21:12:44.000Z,98194
2018-12-08T21:14:44.000Z,98202
2018-12-08T21:15:44.000Z,98193
2018-12-08T21:17:14.000Z,98178
2018-12-08T21:18:44.000Z,98172
2018-12-08T21:20:29.000Z,98174
2018-12-08T21:21:44.000Z,98162
2018-12-08T21:23:29.000Z,98142
2018-12-08T21:24:44.000Z,98135
2018-12-08T21:26:29.000Z,98132
2018-12-08T21:27:44.000Z,98125
2018-12-08T21:29:29.000Z,98121
2018-12-08T21:30:44.000Z,98126